sensor_id;sensor_type;location;lat;lon;timestamp;pressure;altitude;pressure_sealevel;temperature;humidity
1401;BME280;46518;48.842;8.926;2023-11-19T00:00:27;97070.72;;;8.04;100.00
1401;BME280;46518;48.842;8.926;2023-11-19T00:02:56;97053.47;;;8.08;100.00
1401;BME280;46518;48.842;8.926;2023-11-19T00:05:24;97042.50;;;8.23;100.00
1401;BME280;46518;48.842;8.926;2023-11-19T00:07:52;97044.78;;;8.31;100.00
1401;BME280;46518;48.842;8.926;2023-11-19T00:10:26;97042.19;;;8.19;100.00
1401;BME280;46518;48.842;8.926;2023-11-19T00:12:57;97035.81;;;8.15;100.00
1401;BME280;46518;48.842;8.926;2023-11-19T00:15:25;97022.69;;;8.15;100.00
1401;BME280;46518;48.842;8.926;2023-11-19T00:17:53;97021.03;;;8.38;100.00
1401;BME280;46518;48.842;8.926;2023-11-19T00:20:25;97032.00;;;8.35;100.00
1401;BME280;46518;48.842;8.926;2023-11-19T00:22:53;97039.06;;;8.34;100.00
1401;BME280;46518;48.842;8.926;2023-11-19T00:25:23;97029.50;;;8.40;100.00
1401;BME280;46518;48.842;8.926;2023-11-19T00:27:52;97017.72;;;8.54;100.00
1401;BME280;46518;48.842;8.926;2023-11-19T00:30:22;97016.44;;;8.57;100.00
1401;BME280;46518;48.842;8.926;2023-11-19T00:32:50;97002.47;;;8.68;100.00
1401;BME280;46518;48.842;8.926;2023-11-19T00:35:18;97017.59;;;8.78;100.00
1401;BME280;46518;48.842;8.926;2023-11-19T00:37:49;97022.84;;;8.78;100.00
1401;BME280;46518;48.842;8.926;2023-11-19T00:40:18;97016.59;;;8.79;100.00
1401;BME280;46518;48.842;8.926;2023-11-19T00:42:49;97013.56;;;8.87;100.00
1401;BME280;46518;48.842;8.926;2023-11-19T00:45:19;97001.63;;;8.79;100.00
1401;BME280;46518;48.842;8.926;2023-11-19T00:47:50;96994.16;;;8.88;100.00
1401;BME280;46518;48.842;8.926;2023-11-19T00:50:18;97002.53;;;9.02;100.00
1401;BME280;46518;48.842;8.926;2023-11-19T00:52:46;97002.06;;;9.05;100.00
1401;BME280;46518;48.842;8.926;2023-11-19T00:55:15;96992.34;;;9.05;100.00
1401;BME280;46518;48.842;8.926;2023-11-19T00:57:44;96996.94;;;8.98;100.00
1401;BME280;46518;48.842;8.926;2023-11-19T01:00:13;96992.91;;;9.07;100.00
1401;BME280;46518;48.842;8.926;2023-11-19T01:02:47;96997.84;;;9.04;100.00
1401;BME280;46518;48.842;8.926;2023-11-19T01:05:19;96989.63;;;9.00;100.00
1401;BME280;46518;48.842;8.926;2023-11-19T01:07:52;96991.09;;;8.91;100.00
1401;BME280;46518;48.842;8.926;2023-11-19T01:10:22;96989.81;;;8.94;100.00
1401;BME280;46518;48.842;8.926;2023-11-19T01:12:51;96985.91;;;8.96;100.00
1401;BME280;46518;48.842;8.926;2023-11-19T01:15:20;96991.63;;;8.93;100.00
1401;BME280;46518;48.842;8.926;2023-11-19T01:17:50;96985.66;;;8.98;100.00
1401;BME280;46518;48.842;8.926;2023-11-19T01:20:24;96983.53;;;8.95;100.00
1401;BME280;46518;48.842;8.926;2023-11-19T01:22:54;96987.56;;;9.02;100.00
1401;BME280;46518;48.842;8.926;2023-11-19T01:25:23;96990.28;;;9.07;100.00
1401;BME280;46518;48.842;8.926;2023-11-19T01:27:51;96988.00;;;9.11;100.00
1401;BME280;46518;48.842;8.926;2023-11-19T01:30:19;96988.22;;;9.10;100.00
1401;BME280;46518;48.842;8.926;2023-11-19T01:32:48;96990.63;;;9.11;100.00
1401;BME280;46518;48.842;8.926;2023-11-19T01:35:17;96975.97;;;9.15;100.00
1401;BME280;46518;48.842;8.926;2023-11-19T01:37:46;96986.06;;;9.23;100.00
1401;BME280;46518;48.842;8.926;2023-11-19T01:40:14;96988.44;;;9.25;100.00
1401;BME280;46518;48.842;8.926;2023-11-19T01:42:45;96984.06;;;9.31;100.00
1401;BME280;46518;48.842;8.926;2023-11-19T01:45:27;96986.31;;;9.22;100.00
1401;BME280;46518;48.842;8.926;2023-11-19T01:47:59;96989.81;;;9.11;100.00
1401;BME280;46518;48.842;8.926;2023-11-19T01:50:28;96986.16;;;9.28;100.00
1401;BME280;46518;48.842;8.926;2023-11-19T01:52:58;96987.66;;;9.24;100.00
1401;BME280;46518;48.842;8.926;2023-11-19T01:55:27;96981.69;;;9.29;100.00
1401;BME280;46518;48.842;8.926;2023-11-19T01:57:59;96985.13;;;9.29;100.00
1401;BME280;46518;48.842;8.926;2023-11-19T02:00:28;96979.22;;;9.39;100.00
1401;BME280;46518;48.842;8.926;2023-11-19T02:02:59;96973.56;;;9.31;100.00
1401;BME280;46518;48.842;8.926;2023-11-19T02:05:27;96977.16;;;9.41;100.00
1401;BME280;46518;48.842;8.926;2023-11-19T02:08:00;96965.75;;;9.53;100.00
1401;BME280;46518;48.842;8.926;2023-11-19T02:10:28;96960.75;;;9.51;100.00
1401;BME280;46518;48.842;8.926;2023-11-19T02:12:56;96963.13;;;9.36;100.00
1401;BME280;46518;48.842;8.926;2023-11-19T02:15:30;96960.91;;;9.27;100.00
1401;BME280;46518;48.842;8.926;2023-11-19T02:18:20;96954.81;;;9.22;100.00
1401;BME280;46518;48.842;8.926;2023-11-19T02:20:52;96956.16;;;9.24;100.00
1401;BME280;46518;48.842;8.926;2023-11-19T02:23:23;96951.22;;;9.28;100.00
1401;BME280;46518;48.842;8.926;2023-11-19T02:26:02;96939.97;;;9.33;100.00
1401;BME280;46518;48.842;8.926;2023-11-19T02:28:32;96946.09;;;9.38;100.00
1401;BME280;46518;48.842;8.926;2023-11-19T02:31:01;96948.91;;;9.32;100.00
1401;BME280;46518;48.842;8.926;2023-11-19T02:33:31;96947.44;;;9.41;100.00
1401;BME280;46518;48.842;8.926;2023-11-19T02:35:59;96952.69;;;9.41;100.00
1401;BME280;46518;48.842;8.926;2023-11-19T02:38:28;96949.97;;;9.53;100.00
1401;BME280;46518;48.842;8.926;2023-11-19T02:40:58;96946.63;;;9.57;100.00
1401;BME280;46518;48.842;8.926;2023-11-19T02:43:26;96958.28;;;9.44;100.00
1401;BME280;46518;48.842;8.926;2023-11-19T02:45:55;96955.94;;;9.48;100.00
1401;BME280;46518;48.842;8.926;2023-11-19T02:48:24;96948.22;;;9.58;100.00
1401;BME280;46518;48.842;8.926;2023-11-19T02:50:52;96943.69;;;9.54;100.00
1401;BME280;46518;48.842;8.926;2023-11-19T02:53:20;96947.78;;;9.44;100.00
1401;BME280;46518;48.842;8.926;2023-11-19T02:55:50;96947.34;;;9.53;100.00
1401;BME280;46518;48.842;8.926;2023-11-19T02:58:20;96946.91;;;9.61;100.00
1401;BME280;46518;48.842;8.926;2023-11-19T03:00:50;96950.84;;;9.58;100.00
1401;BME280;46518;48.842;8.926;2023-11-19T03:03:26;96953.16;;;9.55;100.00
1401;BME280;46518;48.842;8.926;2023-11-19T03:05:58;96949.19;;;9.52;100.00
1401;BME280;46518;48.842;8.926;2023-11-19T03:08:26;96958.44;;;9.77;100.00
1401;BME280;46518;48.842;8.926;2023-11-19T03:10:54;96964.72;;;9.76;100.00
1401;BME280;46518;48.842;8.926;2023-11-19T03:13:22;96961.69;;;9.84;100.00
1401;BME280;46518;48.842;8.926;2023-11-19T03:15:51;96954.16;;;9.92;100.00
1401;BME280;46518;48.842;8.926;2023-11-19T03:18:21;96953.66;;;9.96;100.00
1401;BME280;46518;48.842;8.926;2023-11-19T03:20:50;96956.78;;;9.92;100.00
1401;BME280;46518;48.842;8.926;2023-11-19T03:23:19;96951.41;;;9.82;100.00
1401;BME280;46518;48.842;8.926;2023-11-19T03:25:47;96957.66;;;9.98;100.00
1401;BME280;46518;48.842;8.926;2023-11-19T03:28:15;96928.50;;;10.00;100.00
1401;BME280;46518;48.842;8.926;2023-11-19T03:30:45;96941.81;;;9.93;100.00
1401;BME280;46518;48.842;8.926;2023-11-19T03:33:13;96943.28;;;10.06;100.00
1401;BME280;46518;48.842;8.926;2023-11-19T03:35:41;96953.56;;;10.07;100.00
1401;BME280;46518;48.842;8.926;2023-11-19T03:38:13;96945.50;;;10.14;100.00
1401;BME280;46518;48.842;8.926;2023-11-19T03:40:41;96942.81;;;10.09;100.00
1401;BME280;46518;48.842;8.926;2023-11-19T03:43:10;96943.28;;;10.06;100.00
1401;BME280;46518;48.842;8.926;2023-11-19T03:45:40;96947.16;;;10.25;100.00
1401;BME280;46518;48.842;8.926;2023-11-19T03:48:08;96941.69;;;10.05;100.00
1401;BME280;46518;48.842;8.926;2023-11-19T03:50:36;96937.09;;;10.17;100.00
1401;BME280;46518;48.842;8.926;2023-11-19T03:53:04;96932.75;;;10.06;100.00
1401;BME280;46518;48.842;8.926;2023-11-19T03:55:34;96928.53;;;10.05;100.00
1401;BME280;46518;48.842;8.926;2023-11-19T03:58:03;96916.63;;;9.97;100.00
1401;BME280;46518;48.842;8.926;2023-11-19T04:00:34;96924.28;;;9.99;100.00
1401;BME280;46518;48.842;8.926;2023-11-19T04:03:03;96926.31;;;9.91;100.00
1401;BME280;46518;48.842;8.926;2023-11-19T04:05:32;96919.22;;;9.92;100.00
1401;BME280;46518;48.842;8.926;2023-11-19T04:08:01;96931.06;;;9.94;100.00
1401;BME280;46518;48.842;8.926;2023-11-19T04:10:29;96927.50;;;10.06;100.00
1401;BME280;46518;48.842;8.926;2023-11-19T04:12:59;96932.97;;;9.99;100.00
1401;BME280;46518;48.842;8.926;2023-11-19T04:15:28;96935.75;;;10.14;100.00
1401;BME280;46518;48.842;8.926;2023-11-19T04:17:58;96935.19;;;10.12;100.00
1401;BME280;46518;48.842;8.926;2023-11-19T04:20:26;96935.75;;;10.14;100.00
1401;BME280;46518;48.842;8.926;2023-11-19T04:22:55;96931.28;;;10.15;100.00
1401;BME280;46518;48.842;8.926;2023-11-19T04:25:23;96941.91;;;10.25;100.00
1401;BME280;46518;48.842;8.926;2023-11-19T04:27:53;96926.81;;;10.15;100.00
1401;BME280;46518;48.842;8.926;2023-11-19T04:30:22;96936.66;;;10.25;100.00
1401;BME280;46518;48.842;8.926;2023-11-19T04:32:53;96937.59;;;10.14;100.00
1401;BME280;46518;48.842;8.926;2023-11-19T04:35:21;96940.06;;;10.26;100.00
1401;BME280;46518;48.842;8.926;2023-11-19T04:37:49;96938.34;;;10.31;100.00
1401;BME280;46518;48.842;8.926;2023-11-19T04:40:17;96924.56;;;10.24;100.00
1401;BME280;46518;48.842;8.926;2023-11-19T04:42:46;96935.03;;;10.41;100.00
1401;BME280;46518;48.842;8.926;2023-11-19T04:45:14;96934.47;;;10.39;100.00
1401;BME280;46518;48.842;8.926;2023-11-19T04:47:44;96935.84;;;10.47;100.00
1401;BME280;46518;48.842;8.926;2023-11-19T04:50:12;96939.47;;;10.41;100.00
1401;BME280;46518;48.842;8.926;2023-11-19T04:52:40;96936.78;;;10.63;100.00
1401;BME280;46518;48.842;8.926;2023-11-19T04:55:09;96935.53;;;10.70;100.00
1401;BME280;46518;48.842;8.926;2023-11-19T04:57:39;96931.88;;;10.71;100.00
1401;BME280;46518;48.842;8.926;2023-11-19T05:00:09;96934.03;;;10.79;100.00
1401;BME280;46518;48.842;8.926;2023-11-19T05:02:41;96938.00;;;10.82;100.00
1401;BME280;46518;48.842;8.926;2023-11-19T05:05:11;96929.69;;;10.95;100.00
1401;BME280;46518;48.842;8.926;2023-11-19T05:07:39;96926.78;;;10.92;100.00
1401;BME280;46518;48.842;8.926;2023-11-19T05:10:08;96928.91;;;10.95;100.00
1401;BME280;46518;48.842;8.926;2023-11-19T05:12:36;96933.16;;;11.01;100.00
1401;BME280;46518;48.842;8.926;2023-11-19T05:15:09;96935.09;;;11.11;100.00
1401;BME280;46518;48.842;8.926;2023-11-19T05:17:38;96953.22;;;11.07;100.00
1401;BME280;46518;48.842;8.926;2023-11-19T05:20:07;96937.19;;;11.09;100.00
1401;BME280;46518;48.842;8.926;2023-11-19T05:22:42;96954.16;;;11.28;100.00
1401;BME280;46518;48.842;8.926;2023-11-19T05:25:10;96949.88;;;11.17;100.00
1401;BME280;46518;48.842;8.926;2023-11-19T05:27:38;96953.56;;;11.16;100.00
1401;BME280;46518;48.842;8.926;2023-11-19T05:30:07;96937.47;;;11.17;100.00
1401;BME280;46518;48.842;8.926;2023-11-19T05:32:37;96945.19;;;11.24;100.00
1401;BME280;46518;48.842;8.926;2023-11-19T05:35:06;96935.41;;;11.19;100.00
1401;BME280;46518;48.842;8.926;2023-11-19T05:37:35;96938.34;;;11.28;100.00
1401;BME280;46518;48.842;8.926;2023-11-19T05:40:08;96933.34;;;11.27;100.00
1401;BME280;46518;48.842;8.926;2023-11-19T05:42:42;96930.94;;;11.25;100.00
1401;BME280;46518;48.842;8.926;2023-11-19T05:45:14;96915.69;;;11.27;100.00
1401;BME280;46518;48.842;8.926;2023-11-19T05:47:42;96920.69;;;11.23;100.00
1401;BME280;46518;48.842;8.926;2023-11-19T05:50:10;96913.09;;;11.32;100.00
1401;BME280;46518;48.842;8.926;2023-11-19T05:52:39;96912.78;;;11.23;100.00
1401;BME280;46518;48.842;8.926;2023-11-19T05:55:08;96913.81;;;11.22;100.00
1401;BME280;46518;48.842;8.926;2023-11-19T05:57:38;96910.63;;;11.20;100.00
1401;BME280;46518;48.842;8.926;2023-11-19T06:00:10;96924.66;;;11.26;100.00
1401;BME280;46518;48.842;8.926;2023-11-19T06:02:39;96915.91;;;11.20;100.00
1401;BME280;46518;48.842;8.926;2023-11-19T06:05:08;96926.81;;;11.34;100.00
1401;BME280;46518;48.842;8.926;2023-11-19T06:07:36;96929.72;;;11.38;100.00
1401;BME280;46518;48.842;8.926;2023-11-19T06:10:06;96932.03;;;11.29;100.00
1401;BME280;46518;48.842;8.926;2023-11-19T06:12:38;96939.19;;;11.34;100.00
1401;BME280;46518;48.842;8.926;2023-11-19T06:15:09;96943.66;;;11.33;100.00
1401;BME280;46518;48.842;8.926;2023-11-19T06:17:38;96940.00;;;11.39;100.00
1401;BME280;46518;48.842;8.926;2023-11-19T06:20:07;96939.47;;;11.37;100.00
1401;BME280;46518;48.842;8.926;2023-11-19T06:22:38;96945.09;;;11.51;100.00
1401;BME280;46518;48.842;8.926;2023-11-19T06:25:08;96943.03;;;11.58;100.00
1401;BME280;46518;48.842;8.926;2023-11-19T06:27:41;96935.59;;;11.55;100.00
1401;BME280;46518;48.842;8.926;2023-11-19T06:30:10;96928.50;;;11.56;100.00
1401;BME280;46518;48.842;8.926;2023-11-19T06:32:38;96949.06;;;11.54;100.00
1401;BME280;46518;48.842;8.926;2023-11-19T06:35:07;96934.03;;;11.54;100.00
1401;BME280;46518;48.842;8.926;2023-11-19T06:37:39;96947.53;;;11.68;100.00
1401;BME280;46518;48.842;8.926;2023-11-19T06:40:08;96944.06;;;11.57;100.00
1401;BME280;46518;48.842;8.926;2023-11-19T06:42:38;96942.44;;;11.46;100.00
1401;BME280;46518;48.842;8.926;2023-11-19T06:45:07;96946.19;;;11.65;100.00
1401;BME280;46518;48.842;8.926;2023-11-19T06:47:36;96944.00;;;11.95;100.00
1401;BME280;46518;48.842;8.926;2023-11-19T06:50:06;96943.13;;;11.79;100.00
1401;BME280;46518;48.842;8.926;2023-11-19T06:52:34;96928.22;;;11.52;100.00
1401;BME280;46518;48.842;8.926;2023-11-19T06:55:04;96944.34;;;11.61;100.00
1401;BME280;46518;48.842;8.926;2023-11-19T06:57:34;96934.22;;;11.42;100.00
1401;BME280;46518;48.842;8.926;2023-11-19T07:00:06;96938.84;;;11.73;100.00
1401;BME280;46518;48.842;8.926;2023-11-19T07:02:35;96942.00;;;11.64;100.00
1401;BME280;46518;48.842;8.926;2023-11-19T07:05:04;96927.63;;;11.40;100.00
1401;BME280;46518;48.842;8.926;2023-11-19T07:07:32;96934.53;;;11.46;100.00
1401;BME280;46518;48.842;8.926;2023-11-19T07:10:00;96941.09;;;11.43;100.00
1401;BME280;46518;48.842;8.926;2023-11-19T07:12:29;96940.38;;;11.53;100.00
1401;BME280;46518;48.842;8.926;2023-11-19T07:14:58;96941.97;;;11.59;100.00
1401;BME280;46518;48.842;8.926;2023-11-19T07:17:29;96957.03;;;11.64;100.00
1401;BME280;46518;48.842;8.926;2023-11-19T07:19:58;96954.31;;;11.49;100.00
1401;BME280;46518;48.842;8.926;2023-11-19T07:22:27;96956.72;;;11.60;100.00
1401;BME280;46518;48.842;8.926;2023-11-19T07:24:57;96956.13;;;11.91;100.00
1401;BME280;46518;48.842;8.926;2023-11-19T07:27:25;96962.34;;;11.74;100.00
1401;BME280;46518;48.842;8.926;2023-11-19T07:29:57;96962.44;;;11.47;100.00
1401;BME280;46518;48.842;8.926;2023-11-19T07:32:25;96960.31;;;11.44;100.00
1401;BME280;46518;48.842;8.926;2023-11-19T07:34:54;96960.06;;;11.45;100.00
1401;BME280;46518;48.842;8.926;2023-11-19T07:37:25;96973.63;;;11.64;100.00
1401;BME280;46518;48.842;8.926;2023-11-19T07:39:54;96963.81;;;11.55;100.00
1401;BME280;46518;48.842;8.926;2023-11-19T07:42:22;96971.69;;;11.50;100.00
1401;BME280;46518;48.842;8.926;2023-11-19T07:44:50;96968.50;;;11.48;100.00
1401;BME280;46518;48.842;8.926;2023-11-19T07:47:19;96988.34;;;11.60;100.00
1401;BME280;46518;48.842;8.926;2023-11-19T07:49:50;97001.13;;;11.79;100.00
1401;BME280;46518;48.842;8.926;2023-11-19T07:52:19;96993.53;;;11.87;100.00
1401;BME280;46518;48.842;8.926;2023-11-19T07:54:48;96995.69;;;11.91;100.00
1401;BME280;46518;48.842;8.926;2023-11-19T07:57:16;96986.97;;;11.90;100.00
1401;BME280;46518;48.842;8.926;2023-11-19T07:59:44;96998.75;;;11.82;100.00
1401;BME280;46518;48.842;8.926;2023-11-19T08:02:13;97006.66;;;11.82;100.00
1401;BME280;46518;48.842;8.926;2023-11-19T08:04:44;96995.97;;;11.94;100.00
1401;BME280;46518;48.842;8.926;2023-11-19T08:07:13;96997.31;;;12.02;100.00
1401;BME280;46518;48.842;8.926;2023-11-19T08:09:45;96998.13;;;12.13;100.00
1401;BME280;46518;48.842;8.926;2023-11-19T08:12:14;96969.59;;;11.94;100.00
1401;BME280;46518;48.842;8.926;2023-11-19T08:14:44;96992.97;;;11.85;100.00
1401;BME280;46518;48.842;8.926;2023-11-19T08:17:12;97005.19;;;11.97;100.00
1401;BME280;46518;48.842;8.926;2023-11-19T08:19:43;96984.44;;;12.11;100.00
1401;BME280;46518;48.842;8.926;2023-11-19T08:22:14;97015.59;;;12.19;100.00
1401;BME280;46518;48.842;8.926;2023-11-19T08:24:43;96997.34;;;12.07;100.00
1401;BME280;46518;48.842;8.926;2023-11-19T08:27:13;97009.56;;;12.23;100.00
1401;BME280;46518;48.842;8.926;2023-11-19T08:29:41;97005.09;;;12.34;100.00
1401;BME280;46518;48.842;8.926;2023-11-19T08:32:12;97006.16;;;12.33;100.00
1401;BME280;46518;48.842;8.926;2023-11-19T08:34:40;97005.63;;;12.36;100.00
1401;BME280;46518;48.842;8.926;2023-11-19T08:37:08;97011.91;;;12.25;100.00
1401;BME280;46518;48.842;8.926;2023-11-19T08:39:38;97011.91;;;12.25;100.00
1401;BME280;46518;48.842;8.926;2023-11-19T08:42:08;97022.78;;;12.39;100.00
1401;BME280;46518;48.842;8.926;2023-11-19T08:44:38;97028.84;;;12.34;100.00
1401;BME280;46518;48.842;8.926;2023-11-19T08:47:06;97013.03;;;12.39;100.00
1401;BME280;46518;48.842;8.926;2023-11-19T08:49:34;97016.41;;;12.24;100.00
1401;BME280;46518;48.842;8.926;2023-11-19T08:52:02;97019.81;;;12.25;100.00
1401;BME280;46518;48.842;8.926;2023-11-19T08:54:30;97011.88;;;12.20;100.00
1401;BME280;46518;48.842;8.926;2023-11-19T08:57:00;97023.22;;;12.20;100.00
1401;BME280;46518;48.842;8.926;2023-11-19T08:59:32;97022.47;;;12.30;100.00
1401;BME280;46518;48.842;8.926;2023-11-19T09:02:02;97010.63;;;12.38;100.00
1401;BME280;46518;48.842;8.926;2023-11-19T09:04:30;97019.63;;;12.42;100.00
1401;BME280;46518;48.842;8.926;2023-11-19T09:06:59;97018.56;;;12.38;100.00
1401;BME280;46518;48.842;8.926;2023-11-19T09:09:27;97013.56;;;12.41;100.00
1401;BME280;46518;48.842;8.926;2023-11-19T09:11:55;97017.50;;;12.34;100.00
1401;BME280;46518;48.842;8.926;2023-11-19T09:14:25;97014.88;;;12.34;100.00
1401;BME280;46518;48.842;8.926;2023-11-19T09:16:55;97013.56;;;12.36;100.00
1401;BME280;46518;48.842;8.926;2023-11-19T09:19:24;97016.19;;;12.36;100.00
1401;BME280;46518;48.842;8.926;2023-11-19T09:21:53;97015.66;;;12.39;100.00
1401;BME280;46518;48.842;8.926;2023-11-19T09:24:21;97019.66;;;12.47;100.00
1401;BME280;46518;48.842;8.926;2023-11-19T09:26:49;97024.38;;;12.45;100.00
1401;BME280;46518;48.842;8.926;2023-11-19T09:29:17;97019.63;;;12.37;100.00
1401;BME280;46518;48.842;8.926;2023-11-19T09:31:46;97019.31;;;12.28;100.00
1401;BME280;46518;48.842;8.926;2023-11-19T09:34:15;97032.03;;;12.36;100.00
1401;BME280;46518;48.842;8.926;2023-11-19T09:36:44;97034.13;;;12.34;100.00
1401;BME280;46518;48.842;8.926;2023-11-19T09:39:13;97015.34;;;12.25;100.00
1401;BME280;46518;48.842;8.926;2023-11-19T09:41:44;97015.66;;;12.39;100.00
1401;BME280;46518;48.842;8.926;2023-11-19T09:44:13;97017.00;;;12.47;100.00
1401;BME280;46518;48.842;8.926;2023-11-19T09:46:45;97017.31;;;12.61;100.00
1401;BME280;46518;48.842;8.926;2023-11-19T09:52:04;97008.31;;;12.57;100.00
1401;BME280;46518;48.842;8.926;2023-11-19T09:54:32;97001.47;;;12.61;100.00
1401;BME280;46518;48.842;8.926;2023-11-19T09:57:01;97012.84;;;12.71;100.00
1401;BME280;46518;48.842;8.926;2023-11-19T09:59:31;96996.47;;;12.64;100.00
1401;BME280;46518;48.842;8.926;2023-11-19T10:02:00;97010.97;;;12.57;100.00
1401;BME280;46518;48.842;8.926;2023-11-19T10:04:30;97006.22;;;12.64;100.00
1401;BME280;46518;48.842;8.926;2023-11-19T10:07:00;97000.97;;;12.69;100.00
1401;BME280;46518;48.842;8.926;2023-11-19T10:09:32;96989.09;;;12.82;100.00
1401;BME280;46518;48.842;8.926;2023-11-19T10:12:00;96987.25;;;12.98;100.00
1401;BME280;46518;48.842;8.926;2023-11-19T10:14:31;96983.81;;;13.07;99.13
1401;BME280;46518;48.842;8.926;2023-11-19T10:17:03;96975.38;;;13.21;100.00
1401;BME280;46518;48.842;8.926;2023-11-19T10:19:32;96988.06;;;13.19;99.94
1401;BME280;46518;48.842;8.926;2023-11-19T10:22:04;96977.50;;;13.19;99.56
1401;BME280;46518;48.842;8.926;2023-11-19T10:24:34;96965.59;;;13.16;99.97
1401;BME280;46518;48.842;8.926;2023-11-19T10:27:07;96967.97;;;13.17;100.00
1401;BME280;46518;48.842;8.926;2023-11-19T10:29:36;96957.94;;;13.25;100.00
1401;BME280;46518;48.842;8.926;2023-11-19T10:32:06;96980.16;;;13.29;98.03
1401;BME280;46518;48.842;8.926;2023-11-19T10:35:04;96963.22;;;13.30;97.39
1401;BME280;46518;48.842;8.926;2023-11-19T10:37:32;96960.56;;;13.45;95.46
1401;BME280;46518;48.842;8.926;2023-11-19T10:40:07;96947.63;;;13.49;91.61
1401;BME280;46518;48.842;8.926;2023-11-19T10:42:37;96971.44;;;13.44;97.03
1401;BME280;46518;48.842;8.926;2023-11-19T10:45:21;96955.03;;;13.47;95.20
1401;BME280;46518;48.842;8.926;2023-11-19T10:47:51;96959.75;;;13.60;92.66
1401;BME280;46518;48.842;8.926;2023-11-19T10:50:19;96965.56;;;13.62;91.09
1401;BME280;46518;48.842;8.926;2023-11-19T10:52:48;96966.59;;;13.71;90.83
1401;BME280;46518;48.842;8.926;2023-11-19T10:55:27;96976.13;;;13.72;90.95
1401;BME280;46518;48.842;8.926;2023-11-19T10:57:59;96965.00;;;13.70;88.74
1401;BME280;46518;48.842;8.926;2023-11-19T11:00:29;96964.81;;;13.41;88.85
1401;BME280;46518;48.842;8.926;2023-11-19T11:03:02;96968.78;;;13.38;89.20
1401;BME280;46518;48.842;8.926;2023-11-19T11:05:33;96973.31;;;13.33;89.58
1401;BME280;46518;48.842;8.926;2023-11-19T11:08:06;96977.50;;;13.24;90.82
1401;BME280;46518;48.842;8.926;2023-11-19T11:10:43;96967.47;;;13.21;91.84
1401;BME280;46518;48.842;8.926;2023-11-19T11:13:14;96992.03;;;13.26;91.85
1401;BME280;46518;48.842;8.926;2023-11-19T11:15:44;96986.75;;;13.36;90.30
1401;BME280;46518;48.842;8.926;2023-11-19T11:18:13;96977.75;;;13.48;91.12
1401;BME280;46518;48.842;8.926;2023-11-19T11:20:44;96972.97;;;13.60;90.30
1401;BME280;46518;48.842;8.926;2023-11-19T11:23:38;96967.19;;;13.53;90.86
1401;BME280;46518;48.842;8.926;2023-11-19T11:26:23;96971.38;;;13.69;89.27
1401;BME280;46518;48.842;8.926;2023-11-19T11:29:01;96971.88;;;13.81;87.67
1401;BME280;46518;48.842;8.926;2023-11-19T11:31:37;96957.03;;;13.91;85.84
1401;BME280;46518;48.842;8.926;2023-11-19T11:34:24;96956.47;;;13.99;84.89
1401;BME280;46518;48.842;8.926;2023-11-19T11:37:05;96948.00;;;13.97;84.83
1401;BME280;46518;48.842;8.926;2023-11-19T11:39:36;96944.03;;;13.94;84.82
1401;BME280;46518;48.842;8.926;2023-11-19T11:42:33;96946.44;;;13.96;86.63
1401;BME280;46518;48.842;8.926;2023-11-19T11:45:04;96940.28;;;14.11;87.33
1401;BME280;46518;48.842;8.926;2023-11-19T11:48:04;96941.66;;;14.03;88.26
1401;BME280;46518;48.842;8.926;2023-11-19T11:50:35;96941.25;;;14.25;89.03
1401;BME280;46518;48.842;8.926;2023-11-19T11:53:17;96947.13;;;14.17;84.93
1401;BME280;46518;48.842;8.926;2023-11-19T11:55:57;96933.56;;;14.29;85.61
1401;BME280;46518;48.842;8.926;2023-11-19T11:58:32;96934.41;;;14.19;86.21
1401;BME280;46518;48.842;8.926;2023-11-19T12:01:04;96938.94;;;14.13;83.28
1401;BME280;46518;48.842;8.926;2023-11-19T12:03:33;96958.34;;;13.93;87.06
1401;BME280;46518;48.842;8.926;2023-11-19T12:06:02;96956.56;;;13.73;84.88
1401;BME280;46518;48.842;8.926;2023-11-19T12:08:34;96950.72;;;13.76;86.77
1401;BME280;46518;48.842;8.926;2023-11-19T12:11:19;96952.28;;;13.93;84.90
1401;BME280;46518;48.842;8.926;2023-11-19T12:13:56;96952.47;;;14.07;82.21
1401;BME280;46518;48.842;8.926;2023-11-19T12:16:26;96946.16;;;13.92;80.94
1401;BME280;46518;48.842;8.926;2023-11-19T12:19:02;96938.75;;;13.94;77.92
1401;BME280;46518;48.842;8.926;2023-11-19T12:21:32;96938.78;;;13.84;81.63
1401;BME280;46518;48.842;8.926;2023-11-19T12:24:07;96935.84;;;13.96;82.63
1401;BME280;46518;48.842;8.926;2023-11-19T12:26:40;96924.63;;;14.19;80.77
1401;BME280;46518;48.842;8.926;2023-11-19T12:29:10;96917.03;;;14.47;78.99
1401;BME280;46518;48.842;8.926;2023-11-19T12:31:44;96906.56;;;14.27;76.81
1401;BME280;46518;48.842;8.926;2023-11-19T12:34:12;96913.25;;;14.19;76.55
1401;BME280;46518;48.842;8.926;2023-11-19T12:36:41;96898.97;;;14.15;75.33
1401;BME280;46518;48.842;8.926;2023-11-19T12:39:10;96919.56;;;14.28;75.03
1401;BME280;46518;48.842;8.926;2023-11-19T12:41:53;96915.81;;;14.29;73.40
1401;BME280;46518;48.842;8.926;2023-11-19T12:44:23;96927.84;;;14.11;74.80
1401;BME280;46518;48.842;8.926;2023-11-19T12:47:02;96913.00;;;14.15;76.43
1401;BME280;46518;48.842;8.926;2023-11-19T12:49:30;96909.75;;;14.29;76.49
1401;BME280;46518;48.842;8.926;2023-11-19T12:52:01;96899.91;;;14.34;75.96
1401;BME280;46518;48.842;8.926;2023-11-19T12:54:34;96898.50;;;14.47;76.22
1401;BME280;46518;48.842;8.926;2023-11-19T12:57:05;96901.19;;;14.42;76.15
1401;BME280;46518;48.842;8.926;2023-11-19T12:59:38;96923.25;;;14.27;72.68
1401;BME280;46518;48.842;8.926;2023-11-19T13:02:06;96901.88;;;14.18;73.65
1401;BME280;46518;48.842;8.926;2023-11-19T13:04:34;96915.13;;;14.13;72.58
1401;BME280;46518;48.842;8.926;2023-11-19T13:07:04;96915.94;;;14.09;72.88
1401;BME280;46518;48.842;8.926;2023-11-19T13:09:33;96913.28;;;14.14;73.75
1401;BME280;46518;48.842;8.926;2023-11-19T13:12:12;96898.97;;;14.15;73.84
1401;BME280;46518;48.842;8.926;2023-11-19T13:14:41;96887.59;;;14.14;71.77
1401;BME280;46518;48.842;8.926;2023-11-19T13:17:13;96897.91;;;14.16;71.37
1401;BME280;46518;48.842;8.926;2023-11-19T13:19:42;96906.06;;;14.24;73.29
1401;BME280;46518;48.842;8.926;2023-11-19T13:22:10;96911.00;;;14.41;72.04
1401;BME280;46518;48.842;8.926;2023-11-19T13:24:39;96911.38;;;14.19;71.30